sensor_id;sensor_type;location;lat;lon;timestamp;pressure;altitude;pressure_sealevel;temperature;humidity
64078;BME280;51039;49.696;10.808;2023-08-01T00:00:59;97339.47;;;16.74;100.00
64078;BME280;51039;49.696;10.808;2023-08-01T00:03:24;97336.03;;;16.78;100.00
64078;BME280;51039;49.696;10.808;2023-08-01T00:05:50;97328.00;;;16.73;100.00
64078;BME280;51039;49.696;10.808;2023-08-01T00:08:15;97332.03;;;16.71;100.00
64078;BME280;51039;49.696;10.808;2023-08-01T00:10:40;97335.47;;;16.71;100.00
64078;BME280;51039;49.696;10.808;2023-08-01T00:13:07;97347.50;;;16.58;100.00
64078;BME280;51039;49.696;10.808;2023-08-01T00:15:33;97344.84;;;16.63;100.00
64078;BME280;51039;49.696;10.808;2023-08-01T00:17:59;97346.44;;;16.64;100.00
64078;BME280;51039;49.696;10.808;2023-08-01T00:20:24;97335.47;;;16.66;100.00
64078;BME280;51039;49.696;10.808;2023-08-01T00:22:50;97330.91;;;16.66;100.00
64078;BME280;51039;49.696;10.808;2023-08-01T00:25:16;97333.06;;;16.69;100.00
64078;BME280;51039;49.696;10.808;2023-08-01T00:27:42;97325.88;;;16.65;100.00
64078;BME280;51039;49.696;10.808;2023-08-01T00:30:07;97330.69;;;16.63;100.00
64078;BME280;51039;49.696;10.808;2023-08-01T00:32:34;97327.44;;;16.66;100.00
64078;BME280;51039;49.696;10.808;2023-08-01T00:34:59;97309.81;;;16.65;100.00
64078;BME280;51039;49.696;10.808;2023-08-01T00:37:25;97307.16;;;16.65;100.00
64078;BME280;51039;49.696;10.808;2023-08-01T00:39:50;97309.00;;;16.64;100.00
64078;BME280;51039;49.696;10.808;2023-08-01T00:42:15;97300.44;;;16.62;100.00
64078;BME280;51039;49.696;10.808;2023-08-01T00:44:41;97299.38;;;16.58;100.00
64078;BME280;51039;49.696;10.808;2023-08-01T00:47:06;97293.50;;;16.56;100.00
64078;BME280;51039;49.696;10.808;2023-08-01T00:49:32;97287.34;;;16.56;100.00
64078;BME280;51039;49.696;10.808;2023-08-01T00:51:58;97288.97;;;16.52;100.00
64078;BME280;51039;49.696;10.808;2023-08-01T00:54:23;97280.66;;;16.53;100.00
64078;BME280;51039;49.696;10.808;2023-08-01T00:56:50;97278.81;;;16.54;100.00
64078;BME280;51039;49.696;10.808;2023-08-01T00:59:15;97275.06;;;16.49;100.00
64078;BME280;51039;49.696;10.808;2023-08-01T01:01:40;97276.13;;;16.48;100.00
64078;BME280;51039;49.696;10.808;2023-08-01T01:04:06;97265.16;;;16.35;100.00
64078;BME280;51039;49.696;10.808;2023-08-01T01:06:32;97256.09;;;16.31;100.00
64078;BME280;51039;49.696;10.808;2023-08-01T01:09:02;97249.16;;;16.40;100.00
64078;BME280;51039;49.696;10.808;2023-08-01T01:11:39;97244.56;;;16.45;100.00
64078;BME280;51039;49.696;10.808;2023-08-01T01:14:04;97245.41;;;16.46;100.00
64078;BME280;51039;49.696;10.808;2023-08-01T01:16:30;97230.16;;;16.46;100.00
64078;BME280;51039;49.696;10.808;2023-08-01T01:18:55;97233.63;;;16.47;100.00
64078;BME280;51039;49.696;10.808;2023-08-01T01:21:21;97236.03;;;16.43;100.00
64078;BME280;51039;49.696;10.808;2023-08-01T01:23:46;97230.41;;;16.50;100.00
64078;BME280;51039;49.696;10.808;2023-08-01T01:26:13;97218.13;;;16.49;100.00
64078;BME280;51039;49.696;10.808;2023-08-01T01:28:45;97215.47;;;16.44;100.00
64078;BME280;51039;49.696;10.808;2023-08-01T01:31:11;97205.03;;;16.47;100.00
64078;BME280;51039;49.696;10.808;2023-08-01T01:33:38;97199.69;;;16.47;100.00
64078;BME280;51039;49.696;10.808;2023-08-01T01:36:03;97201.03;;;16.40;100.00
64078;BME280;51039;49.696;10.808;2023-08-01T01:38:29;97190.88;;;16.32;100.00
64078;BME280;51039;49.696;10.808;2023-08-01T01:40:54;97191.13;;;16.30;100.00
64078;BME280;51039;49.696;10.808;2023-08-01T01:43:20;97197.81;;;16.33;100.00
64078;BME280;51039;49.696;10.808;2023-08-01T01:45:45;97187.66;;;16.35;100.00
64078;BME280;51039;49.696;10.808;2023-08-01T01:48:10;97188.47;;;16.30;100.00
64078;BME280;51039;49.696;10.808;2023-08-01T01:50:35;97180.44;;;16.30;100.00
64078;BME280;51039;49.696;10.808;2023-08-01T01:53:01;97178.34;;;16.32;100.00
64078;BME280;51039;49.696;10.808;2023-08-01T01:55:26;97176.44;;;16.27;100.00
64078;BME280;51039;49.696;10.808;2023-08-01T01:57:51;97153.19;;;16.28;100.00
64078;BME280;51039;49.696;10.808;2023-08-01T02:00:17;97159.06;;;16.30;100.00
64078;BME280;51039;49.696;10.808;2023-08-01T02:02:42;97144.66;;;16.31;100.00
64078;BME280;51039;49.696;10.808;2023-08-01T02:05:07;97137.16;;;16.33;100.00
64078;BME280;51039;49.696;10.808;2023-08-01T02:07:33;97136.63;;;16.26;100.00
64078;BME280;51039;49.696;10.808;2023-08-01T02:09:59;97125.94;;;16.26;100.00
64078;BME280;51039;49.696;10.808;2023-08-01T02:12:24;97118.44;;;16.28;100.00
64078;BME280;51039;49.696;10.808;2023-08-01T02:14:50;97121.13;;;16.28;100.00
64078;BME280;51039;49.696;10.808;2023-08-01T02:17:15;97111.53;;;16.27;100.00
64078;BME280;51039;49.696;10.808;2023-08-01T02:19:41;97115.25;;;16.26;100.00
64078;BME280;51039;49.696;10.808;2023-08-01T02:22:06;97104.84;;;16.24;100.00
64078;BME280;51039;49.696;10.808;2023-08-01T02:24:32;97104.84;;;16.24;100.00
64078;BME280;51039;49.696;10.808;2023-08-01T02:26:57;97103.50;;;16.22;100.00
64078;BME280;51039;49.696;10.808;2023-08-01T02:29:22;97106.19;;;16.27;100.00
64078;BME280;51039;49.696;10.808;2023-08-01T02:31:48;97102.94;;;16.30;100.00
64078;BME280;51039;49.696;10.808;2023-08-01T02:34:13;97089.59;;;16.30;100.00
64078;BME280;51039;49.696;10.808;2023-08-01T02:36:38;97097.63;;;16.25;100.00
64078;BME280;51039;49.696;10.808;2023-08-01T02:39:05;97106.44;;;16.25;100.00
64078;BME280;51039;49.696;10.808;2023-08-01T02:41:31;97107.53;;;16.24;100.00
64078;BME280;51039;49.696;10.808;2023-08-01T02:43:57;97099.78;;;16.23;100.00
64078;BME280;51039;49.696;10.808;2023-08-01T02:46:22;97102.72;;;16.21;100.00
64078;BME280;51039;49.696;10.808;2023-08-01T02:48:48;97105.66;;;16.20;100.00
64078;BME280;51039;49.696;10.808;2023-08-01T02:51:13;97086.41;;;16.23;100.00
64078;BME280;51039;49.696;10.808;2023-08-01T02:53:38;97084.53;;;16.23;100.00
64078;BME280;51039;49.696;10.808;2023-08-01T02:56:06;97084.53;;;16.18;100.00
64078;BME280;51039;49.696;10.808;2023-08-01T02:58:33;97087.47;;;16.22;100.00
64078;BME280;51039;49.696;10.808;2023-08-01T03:00:59;97088.00;;;16.29;100.00
64078;BME280;51039;49.696;10.808;2023-08-01T03:03:24;97091.47;;;16.29;100.00
64078;BME280;51039;49.696;10.808;2023-08-01T03:05:50;97091.19;;;16.31;100.00
64078;BME280;51039;49.696;10.808;2023-08-01T03:08:15;97089.06;;;16.28;100.00
64078;BME280;51039;49.696;10.808;2023-08-01T03:10:40;97084.00;;;16.26;100.00
64078;BME280;51039;49.696;10.808;2023-08-01T03:13:06;97073.56;;;16.30;100.00
64078;BME280;51039;49.696;10.808;2023-08-01T03:15:31;97068.50;;;16.28;100.00
64078;BME280;51039;49.696;10.808;2023-08-01T03:17:57;97062.63;;;16.26;100.00
64078;BME280;51039;49.696;10.808;2023-08-01T03:20:22;97062.63;;;16.26;100.00
64078;BME280;51039;49.696;10.808;2023-08-01T03:22:47;97062.13;;;16.24;100.00
64078;BME280;51039;49.696;10.808;2023-08-01T03:25:13;97055.41;;;16.22;100.00
64078;BME280;51039;49.696;10.808;2023-08-01T03:27:39;97056.75;;;16.24;100.00
64078;BME280;51039;49.696;10.808;2023-08-01T03:30:04;97046.06;;;16.24;100.00
64078;BME280;51039;49.696;10.808;2023-08-01T03:32:33;97056.22;;;16.22;100.00
64078;BME280;51039;49.696;10.808;2023-08-01T03:34:59;97052.47;;;16.23;100.00
64078;BME280;51039;49.696;10.808;2023-08-01T03:37:25;97040.75;;;16.19;100.00
64078;BME280;51039;49.696;10.808;2023-08-01T03:39:50;97041.53;;;16.20;100.00
64078;BME280;51039;49.696;10.808;2023-08-01T03:42:15;97037.81;;;16.21;100.00
64078;BME280;51039;49.696;10.808;2023-08-01T03:44:40;97030.84;;;16.20;100.00
64078;BME280;51039;49.696;10.808;2023-08-01T03:47:06;97025.50;;;16.15;100.00
64078;BME280;51039;49.696;10.808;2023-08-01T03:49:31;97027.91;;;16.16;100.00
64078;BME280;51039;49.696;10.808;2023-08-01T03:51:57;97023.91;;;16.19;100.00
64078;BME280;51039;49.696;10.808;2023-08-01T03:54:23;97014.03;;;16.19;100.00
64078;BME280;51039;49.696;10.808;2023-08-01T03:56:48;97004.13;;;16.20;100.00
64078;BME280;51039;49.696;10.808;2023-08-01T03:59:14;96997.72;;;16.16;100.00
64078;BME280;51039;49.696;10.808;2023-08-01T04:01:40;97000.13;;;16.17;100.00
64078;BME280;51039;49.696;10.808;2023-08-01T04:04:07;97003.59;;;16.18;100.00
64078;BME280;51039;49.696;10.808;2023-08-01T04:06:33;96999.88;;;16.19;100.00
64078;BME280;51039;49.696;10.808;2023-08-01T04:08:58;96992.09;;;16.27;100.00
64078;BME280;51039;49.696;10.808;2023-08-01T04:11:25;96987.53;;;16.28;100.00
64078;BME280;51039;49.696;10.808;2023-08-01T04:13:50;96987.00;;;16.26;100.00
64078;BME280;51039;49.696;10.808;2023-08-01T04:16:16;96984.06;;;16.27;100.00
64078;BME280;51039;49.696;10.808;2023-08-01T04:18:41;96976.31;;;16.31;100.00
64078;BME280;51039;49.696;10.808;2023-08-01T04:21:07;96967.75;;;16.29;100.00
64078;BME280;51039;49.696;10.808;2023-08-01T04:23:33;96967.75;;;16.29;100.00
64078;BME280;51039;49.696;10.808;2023-08-01T04:25:58;96977.94;;;16.27;100.00
64078;BME280;51039;49.696;10.808;2023-08-01T04:28:24;96970.44;;;16.29;100.00
64078;BME280;51039;49.696;10.808;2023-08-01T04:30:50;96974.16;;;16.28;100.00
64078;BME280;51039;49.696;10.808;2023-08-01T04:33:16;96974.44;;;16.32;100.00
64078;BME280;51039;49.696;10.808;2023-08-01T04:35:41;96973.88;;;16.35;100.00
64078;BME280;51039;49.696;10.808;2023-08-01T04:38:07;96970.38;;;16.39;100.00
64078;BME280;51039;49.696;10.808;2023-08-01T04:40:33;96966.59;;;16.45;100.00
64078;BME280;51039;49.696;10.808;2023-08-01T04:42:59;96948.97;;;16.49;100.00
64078;BME280;51039;49.696;10.808;2023-08-01T04:45:26;96955.66;;;16.47;100.00
64078;BME280;51039;49.696;10.808;2023-08-01T04:47:51;96967.94;;;16.48;100.00
64078;BME280;51039;49.696;10.808;2023-08-01T04:50:16;96967.94;;;16.48;100.00
64078;BME280;51039;49.696;10.808;2023-08-01T04:52:42;96968.72;;;16.54;100.00
64078;BME280;51039;49.696;10.808;2023-08-01T04:55:07;96971.88;;;16.61;100.00
64078;BME280;51039;49.696;10.808;2023-08-01T04:57:33;96975.31;;;16.66;100.00
64078;BME280;51039;49.696;10.808;2023-08-01T04:59:58;96977.22;;;16.66;100.00
64078;BME280;51039;49.696;10.808;2023-08-01T05:02:24;96978.81;;;16.67;100.00
64078;BME280;51039;49.696;10.808;2023-08-01T05:04:50;96982.00;;;16.69;100.00
64078;BME280;51039;49.696;10.808;2023-08-01T05:07:15;96986.78;;;16.72;100.00
64078;BME280;51039;49.696;10.808;2023-08-01T05:09:40;96977.47;;;16.69;100.00
64078;BME280;51039;49.696;10.808;2023-08-01T05:12:06;96994.09;;;16.61;100.00
64078;BME280;51039;49.696;10.808;2023-08-01T05:14:31;96987.13;;;16.60;100.00
64078;BME280;51039;49.696;10.808;2023-08-01T05:16:57;96985.53;;;16.59;100.00
64078;BME280;51039;49.696;10.808;2023-08-01T05:19:22;96995.16;;;16.60;100.00
64078;BME280;51039;49.696;10.808;2023-08-01T05:21:47;96988.22;;;16.59;100.00
64078;BME280;51039;49.696;10.808;2023-08-01T05:24:13;96992.72;;;16.64;100.00
64078;BME280;51039;49.696;10.808;2023-08-01T05:26:39;96981.50;;;16.62;100.00
64078;BME280;51039;49.696;10.808;2023-08-01T05:29:04;96983.91;;;16.63;100.00
64078;BME280;51039;49.696;10.808;2023-08-01T05:31:29;96990.06;;;16.64;100.00
64078;BME280;51039;49.696;10.808;2023-08-01T05:33:55;96983.91;;;16.63;100.00
64078;BME280;51039;49.696;10.808;2023-08-01T05:36:20;96982.53;;;16.71;100.00
64078;BME280;51039;49.696;10.808;2023-08-01T05:38:46;96978.81;;;16.67;100.00
64078;BME280;51039;49.696;10.808;2023-08-01T05:41:11;96980.91;;;16.70;100.00
64078;BME280;51039;49.696;10.808;2023-08-01T05:43:37;96976.91;;;16.73;100.00
64078;BME280;51039;49.696;10.808;2023-08-01T05:46:02;96984.97;;;16.67;100.00
64078;BME280;51039;49.696;10.808;2023-08-01T05:48:28;96977.47;;;16.64;100.00
64078;BME280;51039;49.696;10.808;2023-08-01T05:50:53;96991.38;;;16.66;100.00
64078;BME280;51039;49.696;10.808;2023-08-01T05:53:20;96996.97;;;16.70;100.00
64078;BME280;51039;49.696;10.808;2023-08-01T05:55:45;96989.47;;;16.72;100.00
64078;BME280;51039;49.696;10.808;2023-08-01T05:58:11;96983.56;;;16.75;100.00
64078;BME280;51039;49.696;10.808;2023-08-01T06:00:36;96995.84;;;16.76;100.00
64078;BME280;51039;49.696;10.808;2023-08-01T06:03:02;96997.47;;;16.77;100.00
64078;BME280;51039;49.696;10.808;2023-08-01T06:05:28;96992.66;;;16.79;100.00
64078;BME280;51039;49.696;10.808;2023-08-01T06:07:53;96991.59;;;16.80;100.00
64078;BME280;51039;49.696;10.808;2023-08-01T06:10:18;96992.59;;;16.90;100.00
64078;BME280;51039;49.696;10.808;2023-08-01T06:12:44;96990.19;;;16.93;100.00
64078;BME280;51039;49.696;10.808;2023-08-01T06:15:10;96997.47;;;16.77;100.00
64078;BME280;51039;49.696;10.808;2023-08-01T06:17:35;97001.75;;;16.78;100.00
64078;BME280;51039;49.696;10.808;2023-08-01T06:20:01;97007.13;;;16.73;100.00
64078;BME280;51039;49.696;10.808;2023-08-01T06:22:29;97018.88;;;16.77;100.00
64078;BME280;51039;49.696;10.808;2023-08-01T06:24:54;97008.47;;;16.71;100.00
64078;BME280;51039;49.696;10.808;2023-08-01T06:27:20;97013.00;;;16.70;100.00
64078;BME280;51039;49.696;10.808;2023-08-01T06:29:45;97013.81;;;16.71;100.00
64078;BME280;51039;49.696;10.808;2023-08-01T06:32:11;97006.81;;;16.80;100.00
64078;BME280;51039;49.696;10.808;2023-08-01T06:34:36;97021.00;;;16.75;100.00
64078;BME280;51039;49.696;10.808;2023-08-01T06:37:02;97024.75;;;16.74;100.00
64078;BME280;51039;49.696;10.808;2023-08-01T06:39:28;97017.56;;;16.69;100.00
64078;BME280;51039;49.696;10.808;2023-08-01T06:41:54;97016.19;;;16.72;100.00
64078;BME280;51039;49.696;10.808;2023-08-01T06:44:19;97017.03;;;16.73;100.00
64078;BME280;51039;49.696;10.808;2023-08-01T06:46:45;97017.81;;;16.73;100.00
64078;BME280;51039;49.696;10.808;2023-08-01T06:49:10;97004.19;;;16.75;100.00
64078;BME280;51039;49.696;10.808;2023-08-01T06:51:35;96999.69;;;16.65;100.00
64078;BME280;51039;49.696;10.808;2023-08-01T06:54:01;96995.13;;;16.65;100.00
64078;BME280;51039;49.696;10.808;2023-08-01T06:56:26;96996.69;;;16.72;100.00
64078;BME280;51039;49.696;10.808;2023-08-01T06:58:51;96989.69;;;16.81;100.00
64078;BME280;51039;49.696;10.808;2023-08-01T07:01:17;96995.59;;;16.78;100.00
64078;BME280;51039;49.696;10.808;2023-08-01T07:03:42;97004.06;;;17.00;100.00
64078;BME280;51039;49.696;10.808;2023-08-01T07:06:08;97000.94;;;16.88;100.00
64078;BME280;51039;49.696;10.808;2023-08-01T07:08:33;96998.19;;;16.98;100.00
64078;BME280;51039;49.696;10.808;2023-08-01T07:10:58;96997.06;;;17.04;100.00
64078;BME280;51039;49.696;10.808;2023-08-01T07:13:24;97003.25;;;17.00;100.00
64078;BME280;51039;49.696;10.808;2023-08-01T07:15:50;96988.25;;;17.04;100.00
64078;BME280;51039;49.696;10.808;2023-08-01T07:18:16;96997.81;;;17.15;100.00
64078;BME280;51039;49.696;10.808;2023-08-01T07:20:41;97002.16;;;17.01;100.00
64078;BME280;51039;49.696;10.808;2023-08-01T07:23:07;96996.81;;;17.01;100.00
64078;BME280;51039;49.696;10.808;2023-08-01T07:25:32;96984.81;;;16.98;100.00
64078;BME280;51039;49.696;10.808;2023-08-01T07:27:57;96994.97;;;16.96;100.00
64078;BME280;51039;49.696;10.808;2023-08-01T07:30:23;96990.94;;;16.99;100.00
64078;BME280;51039;49.696;10.808;2023-08-01T07:32:48;96991.03;;;16.83;100.00
64078;BME280;51039;49.696;10.808;2023-08-01T07:35:13;96986.22;;;16.80;100.00
64078;BME280;51039;49.696;10.808;2023-08-01T07:37:39;96989.72;;;16.86;100.00
64078;BME280;51039;49.696;10.808;2023-08-01T07:40:05;96988.38;;;16.83;100.00
64078;BME280;51039;49.696;10.808;2023-08-01T07:42:31;96989.69;;;16.81;100.00
64078;BME280;51039;49.696;10.808;2023-08-01T07:44:56;96999.56;;;16.91;100.00
64078;BME280;51039;49.696;10.808;2023-08-01T07:47:22;96996.41;;;16.78;100.00
64078;BME280;51039;49.696;10.808;2023-08-01T07:49:48;96995.41;;;16.59;100.00
64078;BME280;51039;49.696;10.808;2023-08-01T07:52:14;96980.72;;;16.56;100.00
64078;BME280;51039;49.696;10.808;2023-08-01T07:54:39;96976.16;;;16.67;100.00
64078;BME280;51039;49.696;10.808;2023-08-01T07:57:05;96959.00;;;16.73;100.00
64078;BME280;51039;49.696;10.808;2023-08-01T07:59:30;96922.97;;;16.60;100.00
64078;BME280;51039;49.696;10.808;2023-08-01T08:01:56;96928.38;;;16.55;100.00
64078;BME280;51039;49.696;10.808;2023-08-01T08:04:21;96939.00;;;16.60;100.00
64078;BME280;51039;49.696;10.808;2023-08-01T08:06:46;96952.03;;;16.72;100.00
64078;BME280;51039;49.696;10.808;2023-08-01T08:09:12;96954.72;;;16.72;100.00
64078;BME280;51039;49.696;10.808;2023-08-01T08:11:37;96952.28;;;16.76;100.00
64078;BME280;51039;49.696;10.808;2023-08-01T08:14:02;96964.81;;;16.85;100.00
64078;BME280;51039;49.696;10.808;2023-08-01T08:16:28;96984.31;;;16.91;100.00
64078;BME280;51039;49.696;10.808;2023-08-01T08:18:54;96988.78;;;17.06;100.00
64078;BME280;51039;49.696;10.808;2023-08-01T08:21:20;96992.44;;;17.15;100.00
64078;BME280;51039;49.696;10.808;2023-08-01T08:23:45;96991.41;;;17.11;100.00
64078;BME280;51039;49.696;10.808;2023-08-01T08:26:10;96987.69;;;17.07;100.00
64078;BME280;51039;49.696;10.808;2023-08-01T08:28:36;96988.84;;;17.30;100.00
64078;BME280;51039;49.696;10.808;2023-08-01T08:31:02;96977.53;;;17.09;100.00
64078;BME280;51039;49.696;10.808;2023-08-01T08:33:28;96970.66;;;17.32;100.00
64078;BME280;51039;49.696;10.808;2023-08-01T08:35:54;96960.03;;;17.51;100.00
64078;BME280;51039;49.696;10.808;2023-08-01T08:38:19;96951.84;;;17.66;100.00
64078;BME280;51039;49.696;10.808;2023-08-01T08:40:52;96957.78;;;17.63;100.00
64078;BME280;51039;49.696;10.808;2023-08-01T08:43:25;96954.09;;;17.89;100.00
64078;BME280;51039;49.696;10.808;2023-08-01T08:45:52;96951.63;;;17.92;100.00
64078;BME280;51039;49.696;10.808;2023-08-01T08:48:21;96933.78;;;18.07;100.00
64078;BME280;51039;49.696;10.808;2023-08-01T08:50:47;96934.69;;;17.97;100.00
64078;BME280;51039;49.696;10.808;2023-08-01T08:53:14;96939.59;;;18.14;100.00
64078;BME280;51039;49.696;10.808;2023-08-01T08:55:40;96942.00;;;18.15;100.00
64078;BME280;51039;49.696;10.808;2023-08-01T08:58:07;96951.16;;;18.33;100.00
64078;BME280;51039;49.696;10.808;2023-08-01T09:00:35;96952.41;;;18.41;100.00
64078;BME280;51039;49.696;10.808;2023-08-01T09:03:01;96950.41;;;18.90;100.00
64078;BME280;51039;49.696;10.808;2023-08-01T09:05:26;96948.09;;;19.02;100.00
64078;BME280;51039;49.696;10.808;2023-08-01T09:07:56;96956.56;;;18.71;100.00
64078;BME280;51039;49.696;10.808;2023-08-01T09:10:22;96962.59;;;18.39;100.00
64078;BME280;51039;49.696;10.808;2023-08-01T09:12:48;96962.50;;;18.01;100.00
64078;BME280;51039;49.696;10.808;2023-08-01T09:15:14;96945.91;;;17.75;100.00
64078;BME280;51039;49.696;10.808;2023-08-01T09:17:49;96947.13;;;17.58;100.00
64078;BME280;51039;49.696;10.808;2023-08-01T09:20:15;96959.88;;;17.66;100.00
64078;BME280;51039;49.696;10.808;2023-08-01T09:22:44;96966.88;;;17.62;100.00
64078;BME280;51039;49.696;10.808;2023-08-01T09:25:11;96963.28;;;17.48;100.00
64078;BME280;51039;49.696;10.808;2023-08-01T09:27:37;96955.06;;;17.39;100.00
64078;BME280;51039;49.696;10.808;2023-08-01T09:30:06;96950.03;;;17.33;100.00
64078;BME280;51039;49.696;10.808;2023-08-01T09:32:33;96962.94;;;17.25;100.00
64078;BME280;51039;49.696;10.808;2023-08-01T09:34:59;96964.34;;;17.18;100.00
64078;BME280;51039;49.696;10.808;2023-08-01T09:37:25;96961.66;;;17.18;100.00
64078;BME280;51039;49.696;10.808;2023-08-01T09:39:54;96959.72;;;17.29;100.00
64078;BME280;51039;49.696;10.808;2023-08-01T09:42:20;96952.22;;;17.25;100.00
64078;BME280;51039;49.696;10.808;2023-08-01T09:44:46;96957.06;;;17.53;100.00
64078;BME280;51039;49.696;10.808;2023-08-01T09:47:14;96949.31;;;17.80;100.00
64078;BME280;51039;49.696;10.808;2023-08-01T09:49:47;96939.94;;;18.50;100.00
64078;BME280;51039;49.696;10.808;2023-08-01T09:52:14;96931.88;;;19.07;100.00
64078;BME280;51039;49.696;10.808;2023-08-01T09:54:39;96933.81;;;19.53;100.00
64078;BME280;51039;49.696;10.808;2023-08-01T09:57:04;96942.88;;;19.90;99.93
64078;BME280;51039;49.696;10.808;2023-08-01T09:59:31;96943.34;;;19.92;98.02
64078;BME280;51039;49.696;10.808;2023-08-01T10:01:58;96951.59;;;19.82;98.96
64078;BME280;51039;49.696;10.808;2023-08-01T10:04:29;96950.78;;;20.51;95.74
64078;BME280;51039;49.696;10.808;2023-08-01T10:06:59;96949.91;;;20.92;93.40
64078;BME280;51039;49.696;10.808;2023-08-01T10:09:39;96953.09;;;20.16;95.89
64078;BME280;51039;49.696;10.808;2023-08-01T10:12:07;96943.34;;;19.46;99.33
64078;BME280;51039;49.696;10.808;2023-08-01T10:14:35;96942.19;;;19.19;100.00
64078;BME280;51039;49.696;10.808;2023-08-01T10:17:01;96944.63;;;19.01;100.00
64078;BME280;51039;49.696;10.808;2023-08-01T10:19:27;96940.75;;;18.70;100.00
64078;BME280;51039;49.696;10.808;2023-08-01T10:21:55;96944.50;;;18.69;100.00
64078;BME280;51039;49.696;10.808;2023-08-01T10:24:21;96938.28;;;18.73;100.00
64078;BME280;51039;49.696;10.808;2023-08-01T10:26:49;96942.47;;;18.79;100.00
64078;BME280;51039;49.696;10.808;2023-08-01T10:29:14;96946.66;;;18.91;100.00
64078;BME280;51039;49.696;10.808;2023-08-01T10:31:50;96948.06;;;19.21;100.00
64078;BME280;51039;49.696;10.808;2023-08-01T10:34:19;96948.63;;;19.18;100.00
64078;BME280;51039;49.696;10.808;2023-08-01T10:36:53;96951.66;;;19.63;100.00
64078;BME280;51039;49.696;10.808;2023-08-01T10:39:22;96945.84;;;19.75;97.87
64078;BME280;51039;49.696;10.808;2023-08-01T10:41:59;96938.88;;;20.15;97.49
64078;BME280;51039;49.696;10.808;2023-08-01T10:44:26;96944.22;;;19.88;97.06
64078;BME280;51039;49.696;10.808;2023-08-01T10:49:19;96965.63;;;19.79;97.79
64078;BME280;51039;49.696;10.808;2023-08-01T10:51:49;96956.47;;;19.47;98.70
64078;BME280;51039;49.696;10.808;2023-08-01T10:54:18;96955.00;;;19.55;98.49
64078;BME280;51039;49.696;10.808;2023-08-01T10:56:53;96963.78;;;19.28;100.00
64078;BME280;51039;49.696;10.808;2023-08-01T10:59:23;96974.28;;;18.48;94.58
64078;BME280;51039;49.696;10.808;2023-08-01T11:01:49;96980.94;;;17.78;91.68
64078;BME280;51039;49.696;10.808;2023-08-01T11:04:22;96974.78;;;17.14;95.61
64078;BME280;51039;49.696;10.808;2023-08-01T11:06:49;96980.22;;;17.04;98.10
64078;BME280;51039;49.696;10.808;2023-08-01T11:09:21;96991.59;;;16.80;99.17
64078;BME280;51039;49.696;10.808;2023-08-01T11:11:50;97003.44;;;16.59;100.00
64078;BME280;51039;49.696;10.808;2023-08-01T11:14:19;97011.03;;;16.31;100.00
64078;BME280;51039;49.696;10.808;2023-08-01T11:16:48;97009.03;;;15.92;100.00
64078;BME280;51039;49.696;10.808;2023-08-01T11:19:32;97009.50;;;15.99;100.00
64078;BME280;51039;49.696;10.808;2023-08-01T11:21:58;97017.22;;;16.26;100.00
64078;BME280;51039;49.696;10.808;2023-08-01T11:24:25;97011.97;;;16.66;100.00
64078;BME280;51039;49.696;10.808;2023-08-01T11:26:51;97009.13;;;17.02;100.00
64078;BME280;51039;49.696;10.808;2023-08-01T11:29:19;97014.56;;;17.95;100.00
64078;BME280;51039;49.696;10.808;2023-08-01T11:31:52;97026.38;;;18.42;98.00
64078;BME280;51039;49.696;10.808;2023-08-01T11:34:21;97022.66;;;18.62;95.09
64078;BME280;51039;49.696;10.808;2023-08-01T11:36:47;97014.59;;;19.05;95.55
64078;BME280;51039;49.696;10.808;2023-08-01T11:39:13;97022.88;;;18.66;95.68
64078;BME280;51039;49.696;10.808;2023-08-01T11:41:40;97016.38;;;19.48;92.95
64078;BME280;51039;49.696;10.808;2023-08-01T11:44:07;97025.91;;;20.06;88.18
64078;BME280;51039;49.696;10.808;2023-08-01T11:46:34;97026.25;;;19.99;88.56
64078;BME280;51039;49.696;10.808;2023-08-01T11:49:00;97028.50;;;20.25;89.05
64078;BME280;51039;49.696;10.808;2023-08-01T11:51:27;97028.50;;;20.38;87.28
64078;BME280;51039;49.696;10.808;2023-08-01T11:53:59;97032.97;;;20.43;88.41
64078;BME280;51039;49.696;10.808;2023-08-01T11:56:29;97032.88;;;20.34;89.86
64078;BME280;51039;49.696;10.808;2023-08-01T11:58:55;97028.69;;;20.70;85.54
64078;BME280;51039;49.696;10.808;2023-08-01T12:01:20;97019.38;;;21.26;87.52
64078;BME280;51039;49.696;10.808;2023-08-01T12:06:13;97020.53;;;22.33;80.66
64078;BME280;51039;49.696;10.808;2023-08-01T12:08:41;97010.44;;;22.56;86.53
64078;BME280;51039;49.696;10.808;2023-08-01T12:14:10;97008.09;;;22.23;80.54
64078;BME280;51039;49.696;10.808;2023-08-01T12:16:37;97006.69;;;22.26;81.19
64078;BME280;51039;49.696;10.808;2023-08-01T12:19:03;97010.22;;;22.35;81.19
64078;BME280;51039;49.696;10.808;2023-08-01T12:21:30;97007.28;;;22.63;78.86
64078;BME280;51039;49.696;10.808;2023-08-01T12:23:57;96997.00;;;22.82;76.08
64078;BME280;51039;49.696;10.808;2023-08-01T12:26:23;96993.63;;;22.50;77.63
64078;BME280;51039;49.696;10.808;2023-08-01T12:28:49;96985.56;;;22.19;77.85
64078;BME280;51039;49.696;10.808;2023-08-01T12:31:17;96988.25;;;22.19;77.06
64078;BME280;51039;49.696;10.808;2023-08-01T12:33:44;96990.31;;;22.22;77.60
64078;BME280;51039;49.696;10.808;2023-08-01T12:36:09;96994.88;;;22.53;78.22
64078;BME280;51039;49.696;10.808;2023-08-01T12:38:35;96989.88;;;22.95;75.55
64078;BME280;51039;49.696;10.808;2023-08-01T12:41:00;97001.97;;;23.06;75.14
64078;BME280;51039;49.696;10.808;2023-08-01T12:43:26;96995.00;;;23.14;75.12